Terminal Aerodrome Forecast
Issued by NWS Cleveland, OH

Home | Current Version | Previous Version | Graphics & Text | Print | Product List | Glossary Off
Versions: 1 2 3 4 5 6 7 8 9 10 11 12 13 14 15 16 17 18 19 20 21 22

000
FTUS41 KCLE 211300 AAA
TAFERI
TAF AMD
KERI 211307Z 2113/2212 22015G25KT P6SM SCT015 BKN100
      TEMPO 2114/2117 BKN015 OVC025
     FM211700 26012G22KT P6SM BKN035
     FM212000 28014G22KT P6SM VCTS BKN035CB
      TEMPO 2120/2124 5SM -SHRA OVC035
     FM220100 34010KT P6SM VCSH BKN030=

USA.gov is the U.S. government's official web portal to all federal, state and local government web resources and services.